Time;durP1;ratioP1;P1;durP2;ratioP2;P2;SDS_P1;SDS_P2;PMS_P1;PMS_P2;Temp;Humidity;BMP_temperature;BMP_pressure;BME280_temperature;BME280_humidity;BME280_pressure;Samples;Min_cycle;Max_cycle;Signal;HPM_P1;HPM_P2
2022/08/27 00:00:46;;;;;;;10.85;4.50;;;;;;;19.83;69.30;95969.44;5113526;28;20071;-60
2022/08/27 00:03:14;;;;;;;17.38;4.20;;;;;;;19.79;68.30;95976.00;5113413;28;20066;-60
2022/08/27 00:05:42;;;;;;;11.60;4.03;;;;;;;19.79;68.39;95978.66;5113562;28;20508;-62
2022/08/27 00:08:11;;;;;;;19.08;4.90;;;;;;;19.72;68.08;95978.34;5113345;28;20047;-58
2022/08/27 00:10:38;;;;;;;9.93;4.40;;;;;;;19.72;68.88;95977.50;5113398;28;20405;-61
2022/08/27 00:13:06;;;;;;;12.23;4.20;;;;;;;19.76;67.99;95981.56;5113146;28;20400;-61
2022/08/27 00:15:35;;;;;;;14.10;4.18;;;;;;;19.80;68.96;95978.53;5113150;28;20055;-61
2022/08/27 00:18:02;;;;;;;8.13;3.95;;;;;;;19.82;68.88;95976.59;5113222;28;20051;-59
2022/08/27 00:20:29;;;;;;;6.07;3.80;;;;;;;19.83;69.47;95975.59;5113131;28;20043;-61
2022/08/27 00:22:56;;;;;;;13.40;4.53;;;;;;;19.81;68.85;95979.38;5113001;28;20090;-62
2022/08/27 00:25:24;;;;;;;10.98;3.67;;;;;;;19.79;68.42;95973.34;5113331;28;20134;-62
2022/08/27 00:27:51;;;;;;;11.30;4.20;;;;;;;19.77;67.15;95980.59;5113024;28;20039;-60
2022/08/27 00:30:20;;;;;;;10.40;3.95;;;;;;;19.72;65.04;95978.34;5113025;28;20044;-60
2022/08/27 00:32:49;;;;;;;19.33;4.68;;;;;;;19.76;64.33;95979.75;5113040;28;20047;-61
2022/08/27 00:35:17;;;;;;;13.45;4.00;;;;;;;19.85;67.57;95980.78;5113268;28;20047;-61
2022/08/27 00:37:45;;;;;;;11.32;4.13;;;;;;;19.86;67.49;95977.16;5115693;28;20477;-59
2022/08/27 00:40:20;;;;;;;15.90;4.25;;;;;;;19.90;67.20;95978.56;5116575;28;20069;-60
2022/08/27 00:42:48;;;;;;;11.13;3.97;;;;;;;19.93;68.91;95980.16;5116504;28;20081;-59
2022/08/27 00:45:18;;;;;;;16.55;4.35;;;;;;;19.93;69.35;95980.97;5116597;28;20084;-62
2022/08/27 00:47:53;;;;;;;13.70;4.00;;;;;;;19.94;69.37;95977.38;5116636;28;20056;-59
2022/08/27 00:50:28;;;;;;;11.50;4.05;;;;;;;19.92;67.60;95979.28;5116481;28;20404;-61
2022/08/27 00:52:59;;;;;;;14.60;4.40;;;;;;;19.96;68.58;95982.53;5116413;28;20047;-62
2022/08/27 00:55:27;;;;;;;;;;;;;;;19.99;69.75;95976.13;5116909;28;20048;-61
2022/08/27 00:58:01;;;;;;;14.75;4.30;;;;;;;19.97;68.22;95983.34;5116351;28;19989;-60
2022/08/27 01:00:29;;;;;;;8.50;3.88;;;;;;;19.99;68.79;95984.09;5116379;28;20047;-62
2022/08/27 01:02:57;;;;;;;8.88;4.18;;;;;;;20.00;67.83;95986.59;5116138;28;20130;-62
2022/08/27 01:05:26;;;;;;;13.40;4.53;;;;;;;20.00;68.35;95981.31;5116287;27;20044;-61
2022/08/27 01:07:57;;;;;;;6.20;3.60;;;;;;;20.00;69.48;95976.00;5116135;28;20050;-62
2022/08/27 01:10:26;;;;;;;17.17;4.88;;;;;;;19.99;69.65;95978.78;5116168;28;20047;-62
2022/08/27 01:12:55;;;;;;;16.25;4.55;;;;;;;19.94;68.93;95972.06;5115944;28;20071;-61
2022/08/27 01:15:25;;;;;;;13.23;4.72;;;;;;;19.91;68.78;95976.75;5115989;28;20059;-62
2022/08/27 01:17:53;;;;;;;21.52;4.15;;;;;;;19.90;68.07;95977.75;5115922;28;20043;-59
2022/08/27 01:20:25;;;;;;;13.82;4.15;;;;;;;19.90;67.36;95975.09;5115912;28;20043;-62
2022/08/27 01:23:02;;;;;;;21.50;4.78;;;;;;;19.87;67.08;95970.03;5115840;28;20577;-60
2022/08/27 01:25:31;;;;;;;16.40;3.83;;;;;;;19.85;67.22;95977.28;5115786;28;20039;-62
2022/08/27 01:28:02;;;;;;;9.77;3.88;;;;;;;19.84;68.07;95976.47;5115784;28;20079;-59
2022/08/27 01:30:30;;;;;;;14.45;4.22;;;;;;;19.82;68.03;95973.94;5115616;28;20082;-62
2022/08/27 01:32:57;;;;;;;17.60;4.22;;;;;;;19.83;68.94;95974.75;5115527;28;20138;-60
2022/08/27 01:35:25;;;;;;;12.73;4.45;;;;;;;19.83;69.44;95970.31;5115664;28;20044;-59
2022/08/27 01:37:54;;;;;;;9.77;4.53;;;;;;;19.77;67.85;95969.97;5115811;27;20055;-62
2022/08/27 01:40:22;;;;;;;11.38;4.47;;;;;;;19.71;68.01;95963.38;5115376;28;20126;-61
2022/08/27 01:42:52;;;;;;;21.00;4.60;;;;;;;19.72;68.75;95965.06;5115557;28;20167;-62
2022/08/27 01:45:23;;;;;;;18.50;4.85;;;;;;;19.74;68.88;95959.66;5115509;28;20082;-62
2022/08/27 01:47:50;;;;;;;14.57;3.83;;;;;;;19.74;67.37;95959.66;5115473;27;20130;-62
2022/08/27 01:50:21;;;;;;;20.08;4.28;;;;;;;19.75;66.44;95962.13;5115276;28;20134;-61
2022/08/27 01:52:49;;;;;;;10.65;4.28;;;;;;;19.76;67.87;95961.19;5115177;28;20086;-59
2022/08/27 01:55:20;;;;;;;13.38;4.82;;;;;;;19.75;67.86;95964.78;5115400;28;20070;-61
2022/08/27 01:57:47;;;;;;;;;;;;;;;19.71;67.26;95963.38;5115813;28;20128;-60
2022/08/27 02:00:19;;;;;;;15.07;4.63;;;;;;;19.68;67.43;95971.59;5115212;28;19951;-62
2022/08/27 02:02:47;;;;;;;19.73;4.20;;;;;;;19.69;67.77;95968.81;5115205;28;20043;-62
2022/08/27 02:05:15;;;;;;;17.42;4.60;;;;;;;19.63;67.26;95966.66;5114997;28;20043;-59
2022/08/27 02:07:42;;;;;;;13.60;4.97;;;;;;;19.62;67.92;95969.47;5115083;28;20094;-59
2022/08/27 02:10:13;;;;;;;14.30;4.47;;;;;;;19.53;67.71;95960.47;5114846;28;20058;-61
2022/08/27 02:12:40;;;;;;;16.80;4.38;;;;;;;19.55;67.30;95966.47;5114910;28;20083;-59
2022/08/27 02:15:08;;;;;;;21.73;4.32;;;;;;;19.54;67.66;95967.47;5114746;28;20057;-60
2022/08/27 02:17:37;;;;;;;10.75;4.85;;;;;;;19.53;68.06;95971.91;5114748;28;20044;-60
2022/08/27 02:20:05;;;;;;;16.83;4.68;;;;;;;19.51;68.51;95962.41;5114830;28;20131;-59
2022/08/27 02:22:33;;;;;;;12.85;4.00;;;;;;;19.44;67.75;95972.69;5114735;28;20090;-61
2022/08/27 02:25:00;;;;;;;12.25;4.97;;;;;;;19.42;67.83;95974.63;5114695;28;20139;-59
2022/08/27 02:27:28;;;;;;;11.80;4.57;;;;;;;19.44;68.39;95970.03;5114749;28;20047;-62
2022/08/27 02:29:55;;;;;;;12.05;4.35;;;;;;;19.44;68.38;95970.03;5114642;28;20047;-62
2022/08/27 02:32:22;;;;;;;14.93;4.35;;;;;;;19.42;68.46;95966.69;5114597;28;20086;-60
2022/08/27 02:34:51;;;;;;;11.32;5.00;;;;;;;19.44;69.26;95962.91;5114369;28;20151;-62
2022/08/27 02:37:18;;;;;;;11.63;4.60;;;;;;;19.42;69.18;95956.88;5114423;28;20040;-62
2022/08/27 02:39:45;;;;;;;16.00;4.05;;;;;;;19.39;68.33;95961.63;5114104;28;20048;-62
2022/08/27 02:42:12;;;;;;;11.07;4.15;;;;;;;19.39;68.98;95958.97;5114359;28;20052;-61
2022/08/27 02:44:39;;;;;;;11.40;4.53;;;;;;;19.35;68.10;95962.84;5114208;28;20055;-59
2022/08/27 02:47:07;;;;;;;13.02;4.60;;;;;;;19.34;67.89;95959.34;5114226;28;20039;-62
2022/08/27 02:49:34;;;;;;;18.88;4.85;;;;;;;19.34;68.26;95964.66;5114282;28;20052;-60
2022/08/27 02:52:03;;;;;;;8.63;3.90;;;;;;;19.30;68.25;95961.41;5114214;28;20075;-59
2022/08/27 02:54:31;;;;;;;18.55;4.35;;;;;;;19.30;68.40;95963.22;5113942;28;20047;-61
2022/08/27 02:56:59;;;;;;;17.20;3.95;;;;;;;19.24;68.21;95959.28;5114032;28;20555;-58
2022/08/27 02:59:26;;;;;;;12.68;4.53;;;;;;;19.19;67.85;95956.16;5113702;28;20389;-61
2022/08/27 03:01:53;;;;;;;12.88;4.70;;;;;;;19.16;69.30;95954.59;5114146;28;20473;-62
2022/08/27 03:04:21;;;;;;;16.13;4.43;;;;;;;19.07;68.92;95965.94;5113912;28;20455;-58
2022/08/27 03:06:48;;;;;;;11.88;4.50;;;;;;;19.03;68.88;95961.84;5113988;28;20074;-59
2022/08/27 03:09:17;;;;;;;12.43;4.30;;;;;;;19.02;68.82;95960.19;5114027;28;20047;-58
2022/08/27 03:11:44;;;;;;;29.33;5.32;;;;;;;19.01;69.40;95955.81;5114062;27;20047;-59
2022/08/27 03:14:11;;;;;;;15.73;4.82;;;;;;;18.97;69.26;95963.19;5113828;28;20100;-61
2022/08/27 03:16:39;;;;;;;14.27;5.00;;;;;;;18.98;69.12;95958.72;5113831;28;20059;-62
2022/08/27 03:19:06;;;;;;;13.80;4.32;;;;;;;18.98;69.82;95958.72;5113741;28;20051;-59
2022/08/27 03:21:35;;;;;;;14.05;5.05;;;;;;;18.92;69.80;95968.88;5113722;27;20035;-60
2022/08/27 03:24:04;;;;;;;12.32;4.88;;;;;;;18.91;70.00;95971.63;5113765;28;20043;-62
2022/08/27 03:26:33;;;;;;;14.77;4.05;;;;;;;18.94;70.22;95974.88;5113761;28;20040;-61
2022/08/27 03:29:00;;;;;;;12.80;4.80;;;;;;;18.95;70.38;95970.41;5113685;28;20086;-60
2022/08/27 03:31:29;;;;;;;20.45;5.53;;;;;;;18.93;70.55;95970.53;5113770;28;20039;-60
2022/08/27 03:33:59;;;;;;;13.20;4.57;;;;;;;18.87;71.10;95971.03;5113680;28;20059;-62
2022/08/27 03:36:28;;;;;;;13.50;5.00;;;;;;;18.86;70.66;95979.97;5113701;28;20052;-59
2022/08/27 03:38:56;;;;;;;14.18;4.57;;;;;;;18.82;69.75;95979.34;5113476;28;20097;-60
2022/08/27 03:41:23;;;;;;;15.50;4.53;;;;;;;18.84;70.33;95976.56;5113577;28;20393;-60
2022/08/27 03:43:53;;;;;;;8.90;4.38;;;;;;;18.85;70.09;95972.97;5113543;28;20044;-60
2022/08/27 03:46:21;;;;;;;13.68;4.28;;;;;;;18.86;69.76;95979.97;5113387;28;20048;-61
2022/08/27 03:48:49;;;;;;;12.05;4.13;;;;;;;18.89;69.89;95974.41;5113466;28;20047;-61
2022/08/27 03:51:16;;;;;;;16.90;4.47;;;;;;;18.91;71.02;95980.41;5113484;28;20039;-61
2022/08/27 03:53:46;;;;;;;12.55;4.70;;;;;;;18.93;71.33;95982.94;5113265;28;20040;-59
2022/08/27 03:56:14;;;;;;;13.40;5.15;;;;;;;18.93;70.79;95983.78;5113437;28;20073;-61
2022/08/27 03:58:41;;;;;;;17.52;5.47;;;;;;;18.98;70.48;95983.41;5113388;28;20126;-61
2022/08/27 04:01:12;;;;;;;14.65;4.50;;;;;;;19.02;69.42;95984.03;5113398;28;20044;-62
2022/08/27 04:03:40;;;;;;;13.93;4.25;;;;;;;19.06;68.81;95991.56;5113390;28;20092;-60
2022/08/27 04:06:09;;;;;;;19.13;4.40;;;;;;;19.11;69.76;95988.59;5113328;28;20051;-62
2022/08/27 04:08:36;;;;;;;23.02;4.45;;;;;;;19.17;70.44;95989.88;5113236;28;20044;-63
2022/08/27 04:11:07;;;;;;;13.88;4.57;;;;;;;19.16;70.86;95993.50;5113283;28;20090;-62
2022/08/27 04:13:34;;;;;;;12.30;4.18;;;;;;;19.18;69.91;95992.41;5117108;28;20075;-61
2022/08/27 04:16:01;;;;;;;9.52;4.22;;;;;;;19.21;69.58;95988.69;5117412;28;20048;-60
2022/08/27 04:18:30;;;;;;;8.20;4.25;;;;;;;19.29;68.83;95991.53;5117266;27;20051;-61
2022/08/27 04:20:57;;;;;;;10.32;4.63;;;;;;;19.35;69.00;95997.31;5117066;28;20051;-62
2022/08/27 04:23:27;;;;;;;17.75;4.00;;;;;;;19.43;66.85;95990.41;5117169;28;20046;-61
2022/08/27 04:25:56;;;;;;;13.68;4.95;;;;;;;19.57;66.45;95996.38;5117250;28;20082;-60
2022/08/27 04:28:24;;;;;;;12.30;4.30;;;;;;;19.75;66.60;95995.81;5117057;28;20404;-62
2022/08/27 04:30:51;;;;;;;14.20;4.93;;;;;;;19.88;68.63;96000.91;5116817;28;20050;-60
2022/08/27 04:33:19;;;;;;;9.50;3.90;;;;;;;19.97;69.25;95997.47;5116863;28;20043;-63
2022/08/27 04:35:47;;;;;;;14.00;4.35;;;;;;;20.04;69.93;96003.97;5116701;28;20055;-59
2022/08/27 04:38:14;;;;;;;19.15;4.57;;;;;;;20.07;68.94;95998.41;5117063;28;20053;-62
2022/08/27 04:43:28;;;;;;;7.63;4.03;;;;;;;20.14;69.54;96006.69;5116775;28;20054;-60
2022/08/27 04:45:55;;;;;;;13.57;4.57;;;;;;;20.15;69.57;96008.38;5116679;28;20058;-60
2022/08/27 04:48:22;;;;;;;15.75;4.25;;;;;;;20.20;68.90;96014.13;5116719;28;20048;-62
2022/08/27 04:50:51;;;;;;;7.80;4.22;;;;;;;20.28;69.33;96010.81;5116541;28;20043;-60
2022/08/27 04:53:19;;;;;;;16.17;4.07;;;;;;;20.29;70.36;96020.44;5116529;28;20047;-60
2022/08/27 04:55:49;;;;;;;17.17;5.13;;;;;;;20.28;69.62;96007.31;5116357;28;20069;-60
2022/08/27 04:58:17;;;;;;;9.63;3.88;;;;;;;20.35;70.72;96018.25;5116369;28;20048;-61
2022/08/27 05:00:47;;;;;;;15.45;4.20;;;;;;;20.33;66.94;96021.91;5116564;28;20044;-61
2022/08/27 05:03:15;;;;;;;8.18;3.70;;;;;;;20.35;67.81;96028.88;5116298;28;20047;-62
2022/08/27 05:05:42;;;;;;;9.30;3.92;;;;;;;20.33;68.58;96021.91;5116127;28;20382;-61
2022/08/27 05:08:12;;;;;;;12.02;4.57;;;;;;;20.42;69.66;96030.88;5116339;28;20044;-60
2022/08/27 05:10:41;;;;;;;19.58;4.80;;;;;;;20.49;70.09;96030.31;5116148;28;20051;-61
2022/08/27 05:13:09;;;;;;;12.10;4.32;;;;;;;20.54;70.77;96031.63;5116118;28;20130;-59
2022/08/27 05:15:36;;;;;;;11.20;4.65;;;;;;;20.54;70.13;96030.78;5115971;28;20055;-62
2022/08/27 05:18:04;;;;;;;18.15;4.18;;;;;;;20.52;69.14;96030.06;5116098;28;20131;-62
2022/08/27 05:20:32;;;;;;;13.18;4.13;;;;;;;20.57;69.05;96033.16;5115920;27;20071;-59
2022/08/27 05:23:00;;;;;;;11.10;4.30;;;;;;;20.67;68.82;96027.88;5115463;28;20043;-62
2022/08/27 05:25:28;;;;;;;12.70;4.97;;;;;;;20.77;68.34;96030.59;5115789;28;20511;-60
2022/08/27 05:27:56;;;;;;;19.05;4.60;;;;;;;20.87;67.93;96034.13;5115907;28;20043;-59
2022/08/27 05:30:24;;;;;;;14.02;4.45;;;;;;;21.00;66.90;96033.91;5115761;28;20065;-59
2022/08/27 05:32:51;;;;;;;12.80;4.70;;;;;;;21.13;67.01;96038.97;5115628;28;20501;-60
2022/08/27 05:35:18;;;;;;;12.60;4.05;;;;;;;21.24;68.32;96035.34;5115519;28;20125;-60
2022/08/27 05:37:46;;;;;;;12.73;4.28;;;;;;;21.27;65.59;96029.75;5115559;28;20078;-59
2022/08/27 05:40:13;;;;;;;11.73;3.90;;;;;;;21.29;65.27;96037.59;5115421;28;20048;-59
2022/08/27 05:42:42;;;;;;;10.80;4.05;;;;;;;21.31;64.92;96033.81;5115574;28;20501;-59
2022/08/27 05:45:10;;;;;;;20.73;4.75;;;;;;;21.42;65.76;96032.00;5115440;28;20079;-59
2022/08/27 05:47:37;;;;;;;10.05;4.40;;;;;;;21.57;66.80;96037.75;5115565;28;20044;-61
2022/08/27 05:50:05;;;;;;;9.38;4.30;;;;;;;21.69;65.98;96036.66;5115550;28;20386;-60
2022/08/27 05:52:33;;;;;;;15.10;3.90;;;;;;;21.76;66.33;96046.75;5115356;28;20051;-59
2022/08/27 05:55:01;;;;;;;16.45;4.40;;;;;;;21.87;67.07;96041.28;5115190;28;20093;-60
2022/08/27 05:57:28;;;;;;;16.80;4.32;;;;;;;21.98;66.62;96050.94;5115113;28;20052;-62
2022/08/27 06:02:41;;;;;;;25.77;5.25;;;;;;;22.06;66.17;96050.22;5115333;28;20424;-61
2022/08/27 06:05:09;;;;;;;16.00;4.40;;;;;;;22.14;66.42;96057.50;5115067;28;20071;-62
2022/08/27 06:07:37;;;;;;;10.20;4.82;;;;;;;22.19;66.32;96048.09;5115039;28;20815;-62
2022/08/27 06:10:07;;;;;;;10.60;4.47;;;;;;;22.25;66.65;96057.34;5114981;28;20054;-60
2022/08/27 06:12:35;;;;;;;14.90;4.60;;;;;;;22.30;65.24;96055.09;5114981;28;20054;-60
2022/08/27 06:15:04;;;;;;;10.85;4.15;;;;;;;22.30;62.98;96048.91;5114842;28;20047;-62
2022/08/27 06:17:31;;;;;;;32.33;4.88;;;;;;;22.37;61.80;96051.84;5114867;28;20062;-60
2022/08/27 06:19:59;;;;;;;16.85;4.40;;;;;;;22.46;62.59;96057.13;5114737;28;20043;-60
2022/08/27 06:22:26;;;;;;;13.10;3.63;;;;;;;22.61;64.26;96061.19;5114968;28;20386;-60
2022/08/27 06:24:53;;;;;;;22.10;4.63;;;;;;;22.67;60.65;96064.09;5114829;27;20051;-61
2022/08/27 06:27:20;;;;;;;9.52;3.63;;;;;;;22.68;60.00;96059.63;5114806;28;20120;-59
2022/08/27 06:29:48;;;;;;;19.08;4.20;;;;;;;22.74;61.41;96061.72;5114706;28;20067;-60
2022/08/27 06:32:16;;;;;;;13.48;4.35;;;;;;;22.71;59.44;96070.00;5114503;28;20040;-60
2022/08/27 06:34:44;;;;;;;21.30;4.57;;;;;;;22.76;59.19;96069.56;5113902;28;20048;-61
2022/08/27 06:37:11;;;;;;;14.32;3.95;;;;;;;22.87;59.67;96066.69;5114463;28;20043;-61
2022/08/27 06:39:39;;;;;;;11.02;3.78;;;;;;;23.05;60.66;96068.56;5114282;28;20059;-61
2022/08/27 06:42:10;;;;;;;15.63;4.25;;;;;;;23.28;61.81;96065.50;5114430;28;20047;-62
2022/08/27 06:44:37;;;;;;;11.38;4.43;;;;;;;23.47;61.84;96067.25;5114266;28;20568;-61
2022/08/27 06:47:04;;;;;;;18.92;4.32;;;;;;;23.66;60.70;96068.91;5114287;28;20048;-61
2022/08/27 06:49:33;;;;;;;21.92;4.65;;;;;;;23.83;60.44;96071.75;5114162;28;20040;-62
2022/08/27 06:52:01;;;;;;;22.52;4.80;;;;;;;24.01;59.23;96074.41;5114154;28;20049;-59
2022/08/27 06:54:28;;;;;;;15.40;4.13;;;;;;;24.21;58.85;96076.94;5114015;28;20051;-60
2022/08/27 06:56:59;;;;;;;19.73;3.97;;;;;;;24.33;58.07;96078.38;5114141;28;20063;-62
2022/08/27 06:59:26;;;;;;;15.38;4.47;;;;;;;24.39;57.68;96071.56;5114136;28;20087;-61
2022/08/27 07:01:54;;;;;;;14.50;4.50;;;;;;;24.57;56.37;96084.03;5114115;28;20400;-60
2022/08/27 07:04:23;;;;;;;18.05;4.38;;;;;;;24.75;57.47;96083.97;5113907;28;20044;-60
2022/08/27 07:06:52;;;;;;;21.95;5.20;;;;;;;24.96;57.44;96096.13;5114021;28;20065;-59
2022/08/27 07:09:22;;;;;;;22.05;4.50;;;;;;;25.19;57.22;96095.56;5114036;28;20477;-61
2022/08/27 07:11:49;;;;;;;15.77;4.57;;;;;;;25.39;58.02;96096.13;5113984;28;20056;-61
2022/08/27 07:14:17;;;;;;;12.25;4.65;;;;;;;25.55;54.81;96091.81;5113842;28;20048;-61
2022/08/27 07:16:45;;;;;;;15.45;5.28;;;;;;;25.75;56.71;96100.41;5113798;28;20405;-62
2022/08/27 07:19:12;;;;;;;17.73;4.70;;;;;;;25.93;57.04;96089.56;5113968;28;20390;-62
2022/08/27 07:21:39;;;;;;;12.63;4.40;;;;;;;26.08;57.19;96099.59;5113736;28;20052;-61
2022/08/27 07:24:08;;;;;;;22.45;5.30;;;;;;;26.21;58.13;96091.91;5113863;28;20051;-62
2022/08/27 07:26:40;;;;;;;17.15;4.47;;;;;;;26.34;57.77;96094.09;5113682;28;20100;-62
2022/08/27 07:29:08;;;;;;;21.17;4.25;;;;;;;26.46;54.23;96101.81;5113644;28;20046;-61
2022/08/27 07:31:37;;;;;;;12.68;4.40;;;;;;;26.59;54.38;96098.59;5113698;28;20455;-62
2022/08/27 07:34:06;;;;;;;11.27;3.97;;;;;;;26.77;52.78;96100.22;5113637;28;20051;-62
2022/08/27 07:36:35;;;;;;;18.83;4.28;;;;;;;26.87;50.70;96101.72;5113682;28;20096;-60
2022/08/27 07:39:02;;;;;;;23.48;4.28;;;;;;;26.97;47.07;96101.50;5113235;28;20052;-62
2022/08/27 07:44:23;;;;;;;15.63;3.90;;;;;;;27.31;46.74;96104.09;5113591;28;20047;-61
2022/08/27 07:44:26;;;;;;;;;;;;;;;28.17;48.86;96102.41;5113871;28;20051;-59
2022/08/27 07:46:56;;;;;;;14.27;3.60;;;;;;;28.99;46.98;96100.81;5116763;28;19961;-60
2022/08/27 07:49:24;;;;;;;20.03;4.27;;;;;;;29.41;43.72;96105.72;5117798;28;20128;-60
2022/08/27 07:51:53;;;;;;;19.27;4.10;;;;;;;29.29;43.41;96102.69;5117971;28;20292;-62
2022/08/27 07:54:22;;;;;;;11.40;3.42;;;;;;;29.32;42.65;96105.00;5117697;28;20096;-61
2022/08/27 07:56:51;;;;;;;25.00;3.27;;;;;;;29.31;40.48;96100.59;5117399;28;20058;-63
2022/08/27 07:59:18;;;;;;;21.80;3.47;;;;;;;29.46;40.87;96097.91;5117606;28;20101;-60
2022/08/27 08:01:47;;;;;;;13.30;3.63;;;;;;;29.60;37.88;96098.06;5117577;27;20051;-60
2022/08/27 08:04:14;;;;;;;13.35;3.88;;;;;;;29.55;37.11;96100.50;5117451;28;20051;-61
2022/08/27 08:06:42;;;;;;;25.40;3.90;;;;;;;29.68;40.71;96116.84;5117383;28;20408;-62
2022/08/27 08:09:09;;;;;;;17.00;3.35;;;;;;;29.71;37.10;96100.25;5117275;28;20485;-59
2022/08/27 08:11:37;;;;;;;11.15;3.63;;;;;;;29.89;42.01;96109.81;5117574;28;20044;-60
2022/08/27 08:14:05;;;;;;;11.18;2.83;;;;;;;29.95;39.55;96105.50;5117377;28;20453;-61
2022/08/27 08:16:33;;;;;;;16.30;4.10;;;;;;;30.02;41.32;96114.47;5116987;28;20507;-59
2022/08/27 08:19:01;;;;;;;17.05;3.53;;;;;;;30.16;40.03;96106.53;5117073;28;20052;-62
2022/08/27 08:21:30;;;;;;;12.25;3.60;;;;;;;30.18;39.70;96099.94;5117148;28;20120;-62
2022/08/27 08:23:59;;;;;;;14.07;3.53;;;;;;;30.21;40.63;96098.69;5117146;28;20051;-62
2022/08/27 08:26:26;;;;;;;20.50;4.18;;;;;;;30.11;38.49;96097.16;5117067;28;20504;-59
2022/08/27 08:28:54;;;;;;;22.75;3.72;;;;;;;29.94;40.61;96103.81;5117058;28;20131;-61
2022/08/27 08:31:24;;;;;;;17.25;3.63;;;;;;;29.88;38.40;96102.72;5116937;28;20047;-62
2022/08/27 08:33:51;;;;;;;19.80;3.95;;;;;;;29.87;40.38;96101.91;5117028;28;20077;-61
2022/08/27 08:36:19;;;;;;;14.23;3.55;;;;;;;29.86;37.30;96100.22;5116695;28;20054;-60
2022/08/27 08:38:49;;;;;;;22.10;3.30;;;;;;;29.63;36.42;96103.94;5116529;28;20100;-59
2022/08/27 08:41:37;;;;;;;16.10;4.07;;;;;;;29.69;36.85;96105.03;5116722;28;20462;-60
2022/08/27 08:44:13;;;;;;;21.27;4.28;;;;;;;29.82;36.01;96103.47;5116765;28;20480;-60
2022/08/27 08:46:48;;;;;;;17.08;4.05;;;;;;;30.13;37.62;96102.34;5116697;28;20051;-62
2022/08/27 08:49:30;;;;;;;24.35;4.40;;;;;;;30.50;35.33;96100.41;5116694;28;20047;-62
2022/08/27 08:52:07;;;;;;;18.00;3.88;;;;;;;30.77;33.50;96108.72;5116575;28;20047;-61
2022/08/27 08:54:35;;;;;;;23.77;4.18;;;;;;;30.83;32.47;96098.16;5116414;28;20046;-60
2022/08/27 08:57:08;;;;;;;24.52;4.13;;;;;;;31.15;33.14;96098.53;5115672;28;20069;-63
2022/08/27 08:59:38;;;;;;;37.13;4.75;;;;;;;31.42;33.01;96106.78;5116535;28;20043;-62
2022/08/27 09:02:07;;;;;;;;;;;;;;;31.60;32.22;96098.13;5116702;28;20052;-63
2022/08/27 09:04:36;;;;;;;21.42;4.05;;;;;;;31.55;33.40;96092.50;5116276;28;19924;-59
2022/08/27 09:07:14;;;;;;;20.63;4.20;;;;;;;31.39;30.67;96099.94;5116240;28;20455;-59
2022/08/27 09:09:51;;;;;;;19.92;3.70;;;;;;;31.48;30.63;96091.66;5116057;28;20054;-63
2022/08/27 09:12:23;;;;;;;16.95;4.18;;;;;;;31.32;31.38;96087.41;5116116;28;20413;-63
2022/08/27 09:14:55;;;;;;;23.67;4.53;;;;;;;31.18;30.62;96090.03;5116023;28;20478;-62
2022/08/27 09:17:24;;;;;;;31.75;4.35;;;;;;;31.38;31.11;96087.47;5116030;28;20051;-62
2022/08/27 09:19:52;;;;;;;17.67;4.00;;;;;;;31.18;28.91;96084.63;5115974;28;20048;-62
2022/08/27 09:22:27;;;;;;;39.42;5.25;;;;;;;31.10;30.82;96088.38;5115937;28;20323;-62
2022/08/27 09:25:05;;;;;;;28.65;5.00;;;;;;;31.25;31.04;96087.38;5115928;28;20051;-62
2022/08/27 09:27:34;;;;;;;23.73;4.25;;;;;;;31.42;29.86;96090.56;5115918;28;20075;-59
2022/08/27 09:30:07;;;;;;;21.50;4.32;;;;;;;31.59;30.23;96096.47;5115831;28;20082;-63
2022/08/27 09:32:37;;;;;;;36.42;4.90;;;;;;;31.56;30.38;96090.63;5115734;28;20047;-59
2022/08/27 09:35:10;;;;;;;33.60;4.70;;;;;;;31.59;30.82;96090.22;5115644;28;20122;-60
2022/08/27 09:37:42;;;;;;;29.13;4.75;;;;;;;31.81;30.43;96093.59;5115682;28;20050;-60
2022/08/27 09:40:19;;;;;;;20.00;4.65;;;;;;;31.88;29.80;96093.63;5115413;28;20054;-60
2022/08/27 09:42:51;;;;;;;35.58;5.28;;;;;;;31.77;30.28;96089.66;5115538;28;20044;-60
2022/08/27 09:45:22;;;;;;;24.88;4.25;;;;;;;31.44;29.96;96093.94;5115427;28;20047;-62
2022/08/27 09:47:57;;;;;;;34.40;5.95;;;;;;;31.28;30.35;96087.78;5115416;28;20043;-59
2022/08/27 09:50:36;;;;;;;18.88;4.50;;;;;;;31.14;31.05;96089.63;5115491;28;20131;-61
2022/08/27 09:53:05;;;;;;;22.98;4.45;;;;;;;30.96;30.03;96089.31;5115396;28;20054;-63
2022/08/27 09:55:48;;;;;;;29.75;5.03;;;;;;;30.87;30.34;96084.06;5115387;28;20083;-61
2022/08/27 09:58:20;;;;;;;27.00;5.35;;;;;;;30.74;32.52;96097.44;5115229;27;20538;-61
2022/08/27 10:00:49;;;;;;;26.20;5.10;;;;;;;30.75;31.37;96094.56;5115113;28;20051;-62
2022/08/27 10:03:22;;;;;;;33.15;5.05;;;;;;;30.86;32.93;96095.91;5115179;28;20047;-59
2022/08/27 10:05:52;;;;;;;34.08;5.50;;;;;;;30.77;30.89;96094.41;5115020;28;20488;-60
2022/08/27 10:08:22;;;;;;;;;;;;;;;30.97;31.30;96093.69;5115221;28;20139;-61
2022/08/27 10:10:55;;;;;;;28.35;5.03;;;;;;;31.17;30.75;96096.47;5114458;28;19920;-63
2022/08/27 10:13:28;;;;;;;23.80;4.80;;;;;;;31.10;31.31;96095.63;5114859;28;20150;-62
2022/08/27 10:16:33;;;;;;;32.85;5.32;;;;;;;31.00;30.35;96101.38;5114895;28;20047;-59
2022/08/27 10:19:18;;;;;;;33.70;5.63;;;;;;;30.97;30.72;96102.59;5104637;28;21199;-61
2022/08/27 10:21:53;;;;;;;19.88;4.47;;;;;;;31.00;30.93;96094.09;5114813;28;20039;-59
2022/08/27 10:24:30;;;;;;;39.20;5.22;;;;;;;31.00;31.34;96096.00;5114717;28;20489;-62
2022/08/27 10:27:09;;;;;;;18.63;4.88;;;;;;;31.07;30.60;96101.41;5114703;28;20053;-62
2022/08/27 10:29:45;;;;;;;21.47;4.77;;;;;;;31.18;30.26;96102.72;5114639;28;20131;-61
2022/08/27 10:32:28;;;;;;;25.52;5.20;;;;;;;31.27;30.86;96102.34;5114648;28;20055;-60
2022/08/27 10:35:08;;;;;;;23.95;5.18;;;;;;;31.10;29.87;96096.47;5114390;28;20048;-60
2022/08/27 10:37:46;;;;;;;22.50;4.85;;;;;;;31.14;30.07;96095.03;5114596;28;20401;-61
2022/08/27 10:40:19;;;;;;;28.30;5.18;;;;;;;31.30;31.02;96093.00;5114297;28;20051;-62
2022/08/27 10:42:55;;;;;;;25.63;5.25;;;;;;;31.25;30.37;96092.78;5114280;28;20051;-60
2022/08/27 10:45:34;;;;;;;25.52;4.38;;;;;;;30.93;30.47;96097.78;5114381;28;20097;-62
2022/08/27 10:48:16;;;;;;;22.48;4.18;;;;;;;30.89;30.06;96092.81;5114249;28;20096;-60
2022/08/27 10:50:53;;;;;;;22.65;4.18;;;;;;;30.85;29.33;96093.41;5114250;28;20101;-62
2022/08/27 10:53:28;;;;;;;29.20;5.03;;;;;;;30.86;31.13;96095.06;5114233;28;20101;-59
2022/08/27 10:56:08;;;;;;;25.45;4.45;;;;;;;30.67;30.17;96096.56;5114162;28;20050;-62
2022/08/27 10:58:43;;;;;;;20.55;4.20;;;;;;;30.58;30.94;96077.81;5114167;28;20048;-62
2022/08/27 11:01:19;;;;;;;23.73;4.50;;;;;;;30.66;31.47;96087.63;5114323;28;20074;-62
2022/08/27 11:03:51;;;;;;;19.58;4.38;;;;;;;30.71;31.66;96087.06;5113981;28;20083;-62
2022/08/27 11:06:26;;;;;;;22.60;3.97;;;;;;;30.70;30.15;96080.81;5114008;28;20043;-61
2022/08/27 11:08:59;;;;;;;28.90;4.10;;;;;;;30.82;30.65;96078.44;5113925;28;20051;-60
2022/08/27 11:11:34;;;;;;;17.45;4.50;;;;;;;30.91;29.91;96078.28;5113929;28;20050;-63
2022/08/27 11:14:05;;;;;;;18.90;4.03;;;;;;;30.91;29.76;96081.78;5113760;28;20039;-62
2022/08/27 11:16:37;;;;;;;17.52;4.60;;;;;;;31.00;29.53;96082.50;5113785;28;20055;-61
2022/08/27 11:19:12;;;;;;;18.27;4.43;;;;;;;31.06;28.93;96078.97;5113758;28;20046;-61
2022/08/27 11:21:46;;;;;;;21.40;3.80;;;;;;;30.96;28.98;96081.19;5113594;28;20051;-61
2022/08/27 11:24:25;;;;;;;16.45;4.35;;;;;;;31.06;30.36;96080.84;5113814;28;20047;-59
2022/08/27 11:26:57;;;;;;;16.48;4.03;;;;;;;31.17;29.76;96068.63;5113607;28;20089;-61
2022/08/27 11:29:31;;;;;;;16.70;4.70;;;;;;;31.24;28.85;96070.34;5113834;28;20108;-62
2022/08/27 11:32:05;;;;;;;53.83;34.90;;;;;;;31.36;31.50;96067.91;5093382;28;20044;-61
2022/08/27 11:34:40;;;;;;;13.15;3.95;;;;;;;31.33;28.32;96062.06;5093449;28;20052;-61
2022/08/27 11:37:30;;;;;;;19.48;4.50;;;;;;;31.32;29.43;96071.19;5093263;28;20048;-61
2022/08/27 11:40:32;;;;;;;17.45;4.40;;;;;;;31.23;28.94;96054.34;5093135;28;20051;-61
2022/08/27 11:43:04;;;;;;;22.92;4.78;;;;;;;31.20;31.09;96066.38;5061181;28;20040;-63
2022/08/27 11:45:37;;;;;;;21.92;4.25;;;;;;;31.17;28.46;96058.69;5093183;28;20165;-60